Caliente, Nevada Weather observations

Data are for observation ending at time listed.
 Day   Time    Ave.   Ave.  Ave.  Vector   Max.   Stn.    Total    Solar   Ave.  
  of    of     Air    Rel.  Wind   Wind    Wind   Baro.  Precip.   Rad.    Soil  
Year   Day     Temp.  Hum.  Speed  Dir.    Gust   Pres.                    Temp. 
2014   (PST)    F      %     mph   deg.    mph     mb.     in.     W/m2     F   
------------------------------------------------------------------------------
 203    2:20   62.6    30    0.8   214      2.2   871.1    0.00       1    87.3
 203    2:30   61.9    31    0.7   130      1.6   871.1    0.00       1    87.0
 203    2:40   61.6    31    1.7   101      4.0   871.2    0.00       0    86.8
 203    2:50   61.8    31    0.3   326      1.2   871.4    0.00       0    86.6
 203    3:00   60.9    32    0.8   129      2.2   871.5    0.00       0    86.4
 203    3:10   60.4    32    0.6    36      2.6   871.5    0.00       0    86.1
 203    3:20   60.3    33    0.3   278      1.3   871.6    0.00       0    85.9
 203    3:30   59.8    33    1.1   104      2.6   871.6    0.00       0    85.7
 203    3:40   59.3    34    1.6   202      5.8   871.7    0.00       0    85.5
 203    3:50   59.4    34    0.2    83      1.9   871.8    0.00       0    85.3
 203    4:00   58.5    35    1.2    69      3.1   871.9    0.00       0    85.1
 203    4:10   58.2    40    0.8    83      2.0   872.0    0.00       0    84.8
 203    4:20   57.3    43    1.0   118      2.9   872.0    0.00       0    84.6
 203    4:30   56.9    40    1.3    56      2.7   872.0    0.00       3    84.4
 203    4:40   56.8    40    0.5    66      1.2   872.1    0.00       3    84.2
 203    4:50   56.9    38    1.1    54      4.5   872.3    0.00       6    84.0
 203    5:00   56.0    40    1.6   109      3.1   872.3    0.00       9    83.8
 203    5:10   56.0    41    0.7   118      1.5   872.4    0.00       9    83.6
 203    5:20   56.2    41    0.9    76      2.3   872.5    0.00      16    83.4
 203    5:30   56.6    39    1.6    47      3.2   872.6    0.00      21    83.1
 203    5:40   56.7    39    1.7    38      4.0   872.7    0.00      22    82.9
 203    5:50   56.9    38    2.7    33      4.4   872.8    0.00      27    82.7
 203    6:00   57.5    37    1.1    43      3.4   872.8    0.00      28    82.5
 203    6:10   58.8    34    1.1   352      2.2   872.9    0.00      48    82.3
 203    6:20   59.7    34    1.4    24      2.7   872.9    0.00     136    82.1
 203    6:30   60.7    32    1.3    76      2.6   872.9    0.00     169    82.0
 203    6:40   62.2    32    0.5   107      2.0   872.9    0.00     296    81.8
 203    6:50   63.6    30    0.8   121      2.2   872.9    0.00     325    81.6
 203    7:00   65.3    28    0.6   352      2.6   872.9    0.00     351    81.5
 203    7:10   66.9    26    1.3   110      4.5   872.9    0.00     379    81.4
 203    7:20   69.6    22    1.8    28      4.8   872.8    0.00     406    81.3
 203    7:30   71.5    20    2.6    21      4.7   872.8    0.00     432    81.2
 203    7:40   72.9    18    2.2   344      4.5   872.8    0.00     457    81.0
 203    7:50   74.6    18    1.7    34      4.6   872.7    0.00     481    81.0
 203    8:00   76.5    18    1.4    27      4.5   872.7    0.00     503    80.9
 203    8:10   77.7    17    1.9    29      5.0   872.6    0.00     528    80.9
 203    8:20   78.3    16    2.4    36      5.8   872.5    0.00     551    80.9
 203    8:30   78.7    16    3.2    44      6.5   872.5    0.00     575    81.0
 203    8:40   80.7    15    2.2    52      5.1   872.4    0.00     596    81.1
 203    8:50   82.2    14    3.2    33      5.9   872.3    0.00     615    81.2
 203    9:00   83.3    13    2.9    44      6.5   872.2    0.00     633    81.4
 203    9:10   84.6    13    2.1    10      5.8   872.1    0.00     651    81.6
 203    9:20   85.8    12    2.3   346      5.3   872.0    0.00     669    81.8
 203    9:30   86.6    12    1.6   355      5.2   871.9    0.00     685    81.9
 203    9:40   86.9    12    2.0   341      5.4   871.9    0.00     701    82.1
 203    9:50   87.5    12    2.2    53      5.9   871.8    0.00     718    82.2
 203   10:00   88.3    12    2.7    58      6.6   871.6    0.00     730    82.4
 203   10:10   89.0    12    2.9   248     11.7   871.6    0.00     742    82.6
 203   10:20   89.2    10    8.1   248     14.1   871.4    0.00     758    82.8
 203   10:30   89.6    10   10.2   248     19.9   871.4    0.00     769    83.0
 203   10:40   89.5    10    9.2   248     17.8   871.3    0.00     778    83.2
 203   10:50   90.8    10    4.1   243     11.8   871.4    0.00     788    83.5
 203   11:00   91.4    10    8.0   250     17.8   871.3    0.00     791    83.7
 203   11:10   90.7    10    9.1   248     18.0   871.2    0.00     794    84.0
 203   11:20   91.5    10   11.2   250     22.1   871.1    0.00     797    84.3
 203   11:30   91.1    10   12.3   247     18.0   871.0    0.00     802    84.6
 203   11:40   91.4     9    8.3   248     18.4   870.9    0.00     802    85.0
 203   11:50   91.8     9   10.0   250     19.4   870.8    0.00     804    85.3
 203   12:00   92.1     8   12.0   248     21.3   870.7    0.00     803    85.7
 203   12:10   92.0     9   10.0   248     19.3   870.7    0.00     799    86.1
 203   12:20   92.3     9    7.6   248     21.8   870.6    0.00     799    86.6
 203   12:30   92.5     9   13.2   247     21.3   870.4    0.00     793    87.2
 203   12:40   92.5     9   10.4   246     19.9   870.4    0.00     789    87.8
 203   12:50   93.0     8   11.4   247     18.1   870.3    0.00     788    88.5
 203   13:00   93.0     8    9.3   242     25.9   870.4    0.00     780    89.2
 203   13:10   93.5     8    9.2   243     24.6   870.3    0.00     770    90.0
 203   13:20   93.8     8    4.0   244     18.8   870.4    0.00     757    90.8
 203   13:30   94.3     8    5.4   233     14.0   870.3    0.00     745    91.6
 203   13:40   94.3     8    8.6   247     20.3   870.1    0.00     733    92.4
 203   13:50   94.2     7   11.0   250     18.7   870.1    0.00     724    93.3
 203   14:00   95.1     7    5.3   250     19.3   870.1    0.00     709    94.0
 203   14:10   95.6     6    7.6   251     18.8   870.0    0.00     693    94.7
 203   14:20   95.1     6   11.9   248     25.0   869.8    0.00     677    95.5
 203   14:30   94.9     6    9.3   248     21.9   869.7    0.00     660    96.2
 203   14:40   95.1     6   10.9   248     18.0   869.6    0.00     640    96.9
 203   14:50   95.2     6   10.6   248     20.0   869.5    0.00     620    97.4
 203   15:00   95.1     6   10.7   247     18.7   869.5    0.00     600    98.0
 203   15:10   95.5     5    9.3   247     17.8   869.4    0.00     578    98.5
 203   15:20   96.3     5    5.9   250     19.2   869.3    0.00     555    99.0
 203   15:30   95.8     5    8.9   250     18.9   869.2    0.00     533    99.4
 203   15:40   96.3     5    5.8   248     12.7   869.1    0.00     509    99.9
 203   15:50   95.9     6    7.1   248     14.7   869.0    0.00     485    100.3
 203   16:00   95.9     6   11.6   246     19.3   868.9    0.00     459    100.7
 203   16:10   95.6     5   10.5   247     18.3   868.9    0.00     433    100.9
 203   16:20   95.1     6   10.6   247     19.5   868.9    0.00     407    101.2
 203   16:30   95.0     5    9.7   250     16.2   868.9    0.00     379    101.4
 203   16:40   95.1     5    8.1   248     12.8   868.9    0.00     353    101.6
 203   16:50   95.1     6    8.3   247     16.4   868.8    0.00     326    101.7
 203   17:00   94.5     6    9.7   246     14.8   868.8    0.00     300    101.8
 203   17:10   94.2     6    8.8   246     15.3   868.8    0.00     270    101.9
 203   17:20   94.5     6    5.5   248     12.1   868.8    0.00     242    101.9
 203   17:30   94.2     7    8.6   247     18.2   868.7    0.00     214    102.0
 203   17:40   93.9     6    6.1   247     13.1   868.7    0.00     186    101.9
 203   17:50   93.7     7    6.4   246     13.8   868.8    0.00     159    101.9
 203   18:00   93.3     7    8.0   247     14.2   868.8    0.00     133    101.8
 203   18:10   93.2     7    5.5   246     11.2   868.8    0.00     108    101.7
 203   18:20   93.1     7    3.0   243      7.3   868.8    0.00      81    101.5
 203   18:30   92.7     7    4.3   243      8.4   868.9    0.00      53    101.4
 203   18:40   91.4     7    3.5   242      7.7   869.0    0.00      10    101.2
 203   18:50   90.4     7    1.3   243      3.7   869.1    0.00       7    100.9
 203   19:00   89.9     7    2.6   245      7.8   869.1    0.00       4    100.5
 203   19:10   87.5     9    0.2   152      1.8   869.1    0.00       2    100.1
 203   19:20   85.0    10    0.6   229      2.6   869.1    0.00       0    99.6
 203   19:30   83.4    10    0.6    42      1.5   869.2    0.00       0    99.3
 203   19:40   82.2    12    0.3   290      1.5   869.3    0.00       0    98.9
 203   19:50   81.3    11    0.7   285      2.2   869.4    0.00       0    98.5
 203   20:00   80.2    12    0.8   217      2.4   869.4    0.00       0    98.1
 203   20:10   79.6    12    0.5   216      1.8   869.6    0.00       0    97.7
 203   20:20   79.5    11    1.2   270      2.6   869.7    0.00       0    97.3
 203   20:30   79.7    10    1.9   314      4.5   869.9    0.00       0    96.9
 203   20:40   79.2    11    0.5   237      2.3   869.9    0.00       0    96.6
 203   20:50   77.0    13    0.2   134      1.4   870.1    0.00       0    96.2
 203   21:00   76.5    12    1.1    54      3.9   870.2    0.00       0    95.8
 203   21:10   76.4    13    0.3   205      1.2   870.2    0.00       0    95.5
 203   21:20   74.6    14    0.8   219      2.0   870.2    0.00       0    95.1
 203   21:30   73.7    14    0.5    80      2.1   870.2    0.00       0    94.8
 203   21:40   74.0    14    1.0   193      3.0   870.3    0.00       0    94.5
 203   21:50   73.1    16    1.2   187      2.5   870.3    0.00       0    94.2
 203   22:00   72.0    14    1.4   229      4.5   870.3    0.00       0    93.8
 203   22:10   71.7    15    1.1    91      2.2   870.3    0.00       0    93.5
 203   22:20   71.3    18    0.4    72      1.8   870.3    0.00       0    93.2
 203   22:30   70.6    18    0.8   132      1.8   870.4    0.00       0    92.9
 203   22:40   69.6    18    0.3    17      1.8   870.4    0.00       0    92.6
 203   22:50   69.6    19    0.6   146      1.6   870.5    0.00       0    92.4
 203   23:00   69.0    18    0.4   236      1.7   870.6    0.00       0    92.1
 203   23:10   69.0    20    0.5   200      1.4   870.7    0.00       1    91.8
 203   23:20   68.1    18    0.8   108      1.7   870.7    0.00       1    91.5
 203   23:30   68.5    16    1.2    45      3.7   870.7    0.00       1    91.3
 203   23:40   68.8    15    1.0    96      2.3   870.7    0.00       1    91.0
 203   23:50   68.5    16    1.5    29      3.4   870.7    0.00       1    90.7
 204    0:00   67.7    17    1.2   104      2.3   870.7    0.00       1    90.5
 204    0:10   66.8    20    1.6    74      3.4   870.7    0.00       2    90.2
 204    0:20   65.9    21    1.2    86      2.9   870.8    0.00       1    90.0
 204    0:30   65.7    19    1.5   117      2.7   870.7    0.00       1    89.7
 204    0:40   66.1    18    0.7    78      1.6   870.7    0.00       2    89.4
 204    0:50   65.8    19    1.2    55      3.6   870.8    0.00       1    89.2
 204    1:00   65.3    20    1.5    39      3.3   870.8    0.00       2    89.0
 204    1:10   64.7    20    0.9   110      2.4   870.9    0.00       1    88.7
 204    1:20   64.3    19    1.5   124      2.3   870.8    0.00       1    88.4
 204    1:30   64.3    18    0.7   125      1.9   870.8    0.00       1    88.2
 204    1:40   64.3    20    0.6    14      2.5   870.8    0.00       2    88.0
 204    1:50   63.8    21    0.1   124      1.2   870.8    0.00       1    87.8
 204    2:00   63.1    22    0.3   138      1.2   870.8    0.00       1    87.6
 204    2:10   62.5    23    1.1    94      2.6   870.8    0.00       1    87.3

Return to Caliente, Nevada graphs page.


Western Regional Climate Center,wrcc@dri.edu